Time;durP1;ratioP1;P1;durP2;ratioP2;P2;SDS_P1;SDS_P2;PMS_P1;PMS_P2;Temp;Humidity;BMP_temperature;BMP_pressure;BME280_temperature;BME280_humidity;BME280_pressure;Samples;Min_cycle;Max_cycle;Signal;HPM_P1;HPM_P2
2022/07/16 00:03:25;;;;;;;5.27;3.60;;;15.40;99.90;;;;;;5010339;28;20420;-75
2022/07/16 00:05:51;;;;;;;4.00;3.00;;;15.30;99.90;;;;;;4992013;28;20422;-74
2022/07/16 00:08:17;;;;;;;4.70;3.20;;;15.30;99.90;;;;;;5010006;28;20206;-73
2022/07/16 00:10:42;;;;;;;5.83;3.27;;;15.20;99.90;;;;;;5010123;28;20642;-73
2022/07/16 00:13:08;;;;;;;4.47;3.30;;;15.20;99.90;;;;;;5009963;28;20180;-74
2022/07/16 00:15:34;;;;;;;7.83;3.60;;;15.20;99.90;;;;;;5009984;28;20180;-74
2022/07/16 00:20:43;;;;;;;5.23;2.90;;;15.10;99.90;;;;;;4994977;28;20281;-74
2022/07/16 00:23:09;;;;;;;4.23;3.13;;;15.10;99.90;;;;;;5009934;28;20511;-74
2022/07/16 00:25:35;;;;;;;5.67;3.33;;;15.10;99.90;;;;;;5010034;28;20185;-75
2022/07/16 00:28:01;;;;;;;4.90;3.30;;;15.10;99.90;;;;;;5010123;28;20668;-75
2022/07/16 00:30:27;;;;;;;8.17;4.23;;;15.10;99.90;;;;;;5010113;28;20660;-75
2022/07/16 00:32:53;;;;;;;4.80;3.70;;;15.00;99.90;;;;;;5009788;28;20413;-75
2022/07/16 00:35:19;;;;;;;12.30;3.70;;;15.00;99.90;;;;;;5009658;28;20844;-74
2022/07/16 00:37:45;;;;;;;11.53;3.90;;;14.80;99.90;;;;;;4975414;28;20213;-74
2022/07/16 00:40:11;;;;;;;7.40;3.60;;;14.50;99.90;;;;;;4991334;28;20205;-74
2022/07/16 00:42:37;;;;;;;5.63;4.07;;;14.40;99.90;;;;;;5009198;28;20269;-75
2022/07/16 00:45:04;;;;;;;7.60;3.30;;;14.40;99.90;;;;;;5009360;28;20566;-75
2022/07/16 00:47:30;;;;;;;7.00;3.00;;;14.50;99.90;;;;;;5009352;28;20205;-74
2022/07/16 00:49:56;;;;;;;4.03;3.30;;;14.60;99.90;;;;;;5009246;28;20980;-74
2022/07/16 00:52:22;;;;;;;4.23;2.90;;;14.70;99.90;;;;;;4991386;28;20510;-74
2022/07/16 00:54:48;;;;;;;3.97;3.60;;;14.80;99.90;;;;;;5009223;28;20420;-74
2022/07/16 00:57:14;;;;;;;5.60;3.57;;;14.80;99.90;;;;;;5009165;28;20442;-75
2022/07/16 00:59:39;;;;;;;6.07;3.30;;;14.80;99.90;;;;;;4991479;28;20181;-74
2022/07/16 01:02:05;;;;;;;4.00;3.30;;;14.80;99.90;;;;;;5009430;28;20173;-74
2022/07/16 01:04:31;;;;;;;4.00;3.13;;;14.80;99.90;;;;;;5008997;28;20173;-74
2022/07/16 01:06:57;;;;;;;7.97;3.30;;;14.80;99.90;;;;;;5009123;28;20706;-74
2022/07/16 01:09:25;;;;;;;5.83;3.97;;;14.70;99.90;;;;;;5009257;28;20415;-76
2022/07/16 01:11:52;;;;;;;8.90;3.50;;;14.70;99.90;;;;;;5009306;28;20499;-76
2022/07/16 01:14:18;;;;;;;5.27;3.60;;;14.70;99.90;;;;;;4975364;28;20432;-76
2022/07/16 01:16:45;;;;;;;7.13;3.70;;;14.70;99.90;;;;;;4975328;28;20590;-76
2022/07/16 01:19:12;;;;;;;4.77;4.10;;;14.70;99.90;;;;;;4991479;28;20425;-75
2022/07/16 01:21:39;;;;;;;3.60;3.30;;;14.60;99.90;;;;;;5009237;28;20927;-74
2022/07/16 01:24:05;;;;;;;5.97;3.60;;;14.60;99.90;;;;;;5009398;28;20934;-77
2022/07/16 01:26:30;;;;;;;6.93;3.37;;;14.50;99.90;;;;;;4991671;28;20454;-74
2022/07/16 01:28:56;;;;;;;7.80;3.63;;;14.50;99.90;;;;;;5009385;28;20428;-74
2022/07/16 01:31:22;;;;;;;4.60;3.27;;;14.30;99.90;;;;;;5009895;28;20216;-74
2022/07/16 01:36:32;;;;;;;7.10;4.20;;;14.20;99.90;;;;;;5014475;28;20212;-74
2022/07/16 01:38:58;;;;;;;4.10;3.40;;;14.20;99.90;;;;;;5015295;28;20540;-74
2022/07/16 01:41:23;;;;;;;6.00;3.20;;;14.20;99.90;;;;;;5019327;28;20611;-74
2022/07/16 01:43:49;;;;;;;7.13;3.70;;;14.20;99.90;;;;;;5016397;28;20266;-74
2022/07/16 01:46:14;;;;;;;5.30;3.77;;;14.00;99.90;;;;;;5012934;28;20248;-74
2022/07/16 01:48:40;;;;;;;8.00;4.13;;;13.90;99.90;;;;;;5012679;28;20189;-74
2022/07/16 01:51:06;;;;;;;4.83;3.60;;;13.80;99.90;;;;;;5012605;28;20707;-74
2022/07/16 01:53:31;;;;;;;4.80;3.53;;;13.80;99.90;;;;;;5012848;28;20223;-74
2022/07/16 01:55:59;;;;;;;3.53;3.23;;;13.80;99.90;;;;;;4994713;28;21086;-74
2022/07/16 01:58:25;;;;;;;6.63;4.27;;;13.90;99.90;;;;;;5012628;28;20260;-74
2022/07/16 02:00:51;;;;;;;6.63;4.03;;;13.80;99.90;;;;;;5012265;28;20424;-74
2022/07/16 02:03:17;;;;;;;5.57;3.93;;;13.60;99.90;;;;;;5012378;28;20454;-74
2022/07/16 02:05:43;;;;;;;5.27;4.10;;;13.50;99.90;;;;;;4994319;28;20424;-74
2022/07/16 02:08:10;;;;;;;4.67;3.80;;;13.30;99.90;;;;;;4978284;28;20204;-74
2022/07/16 02:10:36;;;;;;;4.80;3.70;;;13.30;99.90;;;;;;4978236;28;20215;-74
2022/07/16 02:13:02;;;;;;;5.27;3.47;;;13.30;99.90;;;;;;5012330;28;20415;-74
2022/07/16 02:15:28;;;;;;;8.77;3.67;;;13.30;99.90;;;;;;5012078;28;20420;-74
2022/07/16 02:17:54;;;;;;;5.97;3.57;;;13.40;99.90;;;;;;5011873;28;20447;-74
2022/07/16 02:20:20;;;;;;;4.17;2.97;;;13.60;99.90;;;;;;5011810;28;20415;-74
2022/07/16 02:22:46;;;;;;;4.73;3.47;;;13.60;99.90;;;;;;4993920;28;20197;-74
2022/07/16 02:25:12;;;;;;;10.00;3.80;;;13.60;99.90;;;;;;5012330;28;20212;-74
2022/07/16 02:28:05;;;;;;;6.67;3.67;;;13.60;99.90;;;;;;5011659;28;20562;-75
2022/07/16 02:30:25;;;;;;;6.47;3.70;;;13.40;99.90;;;;;;5011382;28;20809;-75
2022/07/16 02:32:51;;;;;;;5.77;4.00;;;13.20;99.90;;;;;;4977545;28;20431;-75
2022/07/16 02:35:16;;;;;;;6.57;4.10;;;13.30;99.90;;;;;;5011543;28;20409;-74
2022/07/16 02:37:42;;;;;;;8.30;3.67;;;13.40;99.90;;;;;;5011450;28;20452;-74
2022/07/16 02:40:08;;;;;;;8.43;3.53;;;13.50;99.90;;;;;;5011436;28;20267;-74
2022/07/16 02:42:34;;;;;;;4.57;3.27;;;13.60;99.90;;;;;;5010868;28;20184;-74
2022/07/16 02:45:00;;;;;;;6.00;3.50;;;13.50;99.90;;;;;;5010887;28;20427;-74
2022/07/16 02:47:25;;;;;;;6.33;4.00;;;13.40;99.90;;;;;;4977243;28;20212;-75
2022/07/16 02:49:52;;;;;;;5.80;3.30;;;13.60;99.90;;;;;;4993491;28;20252;-75
2022/07/16 02:52:17;;;;;;;12.80;3.27;;;13.50;99.90;;;;;;4993653;28;20455;-75
2022/07/16 02:54:43;;;;;;;4.30;3.30;;;13.60;99.90;;;;;;4977068;28;20693;-74
2022/07/16 02:57:09;;;;;;;4.90;4.03;;;13.60;99.90;;;;;;5011095;28;20588;-74
2022/07/16 02:59:34;;;;;;;7.70;3.77;;;13.60;99.90;;;;;;5011113;28;20638;-74
2022/07/16 03:02:00;;;;;;;4.53;3.20;;;13.50;99.90;;;;;;4993369;28;20624;-75
2022/07/16 03:04:25;;;;;;;10.00;3.40;;;13.50;99.90;;;;;;5011269;28;20188;-74
2022/07/16 03:06:51;;;;;;;4.10;3.70;;;13.60;99.90;;;;;;5010952;28;20287;-75
2022/07/16 03:09:17;;;;;;;4.70;3.70;;;13.60;99.90;;;;;;5011205;28;20264;-74
2022/07/16 03:11:42;;;;;;;3.50;3.20;;;13.70;99.90;;;;;;5010988;28;20236;-75
2022/07/16 03:14:08;;;;;;;5.50;3.43;;;13.70;99.90;;;;;;5010938;28;20195;-74
2022/07/16 03:16:33;;;;;;;4.40;4.00;;;13.60;99.90;;;;;;4993033;28;20312;-74
2022/07/16 03:18:59;;;;;;;6.33;4.20;;;13.60;99.90;;;;;;5010941;28;20192;-74
2022/07/16 03:21:25;;;;;;;7.03;4.30;;;13.60;99.90;;;;;;5010804;28;20194;-75
2022/07/16 03:23:50;;;;;;;4.67;4.17;;;13.40;99.90;;;;;;4993571;28;20194;-75
2022/07/16 03:26:16;;;;;;;5.70;4.13;;;13.10;99.90;;;;;;5011211;28;20288;-74
2022/07/16 03:28:42;;;;;;;5.37;4.23;;;12.90;99.90;;;;;;5011017;28;20193;-73
2022/07/16 03:31:07;;;;;;;6.00;3.90;;;12.80;99.90;;;;;;5011093;28;20220;-73
2022/07/16 03:33:33;;;;;;;10.27;4.07;;;12.70;99.90;;;;;;5011203;28;20185;-73
2022/07/16 03:35:59;;;;;;;10.30;4.23;;;12.80;99.90;;;;;;4997154;28;20264;-74
2022/07/16 03:41:09;;;;;;;4.97;3.90;;;12.90;99.90;;;;;;5035501;28;20199;-74
2022/07/16 03:43:34;;;;;;;6.10;4.90;;;13.10;99.90;;;;;;5035337;28;20452;-75
2022/07/16 03:46:00;;;;;;;11.67;4.13;;;13.20;99.90;;;;;;5013339;28;20200;-73
2022/07/16 03:48:25;;;;;;;7.93;4.20;;;13.20;99.90;;;;;;5011375;28;20717;-73
2022/07/16 03:50:51;;;;;;;16.63;4.80;;;13.20;99.90;;;;;;5010471;28;20220;-73
2022/07/16 03:53:17;;;;;;;6.43;4.60;;;13.20;99.90;;;;;;4992813;28;20284;-73
2022/07/16 03:55:42;;;;;;;8.77;4.10;;;13.10;99.90;;;;;;4992467;28;20193;-80
2022/07/16 03:58:08;;;;;;;8.40;4.73;;;13.20;99.90;;;;;;4993148;28;20255;-75
2022/07/16 04:00:34;;;;;;;7.83;4.73;;;13.20;99.90;;;;;;5010461;28;20188;-77
2022/07/16 04:02:59;;;;;;;7.63;4.43;;;13.30;99.90;;;;;;5010308;28;20637;-77
2022/07/16 04:05:25;;;;;;;8.63;4.53;;;13.30;99.90;;;;;;4992214;28;20196;-71
2022/07/16 04:07:51;;;;;;;6.30;4.73;;;13.30;99.90;;;;;;5010057;28;20220;-71
2022/07/16 04:10:16;;;;;;;6.20;4.10;;;13.20;99.90;;;;;;5009875;28;20214;-72
2022/07/16 04:12:42;;;;;;;5.93;3.80;;;13.20;99.90;;;;;;5009861;28;20185;-75
2022/07/16 04:15:08;;;;;;;9.47;5.33;;;13.30;99.90;;;;;;5009849;28;20236;-74
2022/07/16 04:17:33;;;;;;;9.77;4.43;;;13.30;99.90;;;;;;5009900;28;20304;-73
2022/07/16 04:19:59;;;;;;;5.77;4.43;;;13.30;99.90;;;;;;4992854;28;20969;-74
2022/07/16 04:22:25;;;;;;;7.00;4.07;;;13.30;99.90;;;;;;5010081;28;20279;-74
2022/07/16 04:24:50;;;;;;;6.33;4.47;;;13.20;99.90;;;;;;5010146;28;20189;-74
2022/07/16 04:27:16;;;;;;;5.53;4.10;;;13.30;99.90;;;;;;5010061;28;20607;-74
2022/07/16 04:29:42;;;;;;;10.70;4.80;;;13.40;99.90;;;;;;5010283;28;20269;-74
2022/07/16 04:32:07;;;;;;;7.73;4.57;;;13.50;99.90;;;;;;5010275;28;20280;-73
2022/07/16 04:34:33;;;;;;;8.60;4.40;;;13.70;99.90;;;;;;5010547;28;20221;-75
2022/07/16 04:36:59;;;;;;;8.90;4.53;;;13.70;99.90;;;;;;4992466;28;20689;-76
2022/07/16 04:39:24;;;;;;;9.20;4.43;;;13.80;99.90;;;;;;5009944;28;20232;-76
2022/07/16 04:41:50;;;;;;;12.20;4.20;;;13.90;99.90;;;;;;4992530;28;20195;-76
2022/07/16 04:44:15;;;;;;;10.77;4.47;;;14.00;99.90;;;;;;4976109;28;20654;-75
2022/07/16 04:46:41;;;;;;;8.37;5.10;;;14.10;99.90;;;;;;5009714;28;20231;-74
2022/07/16 04:49:06;;;;;;;10.10;5.10;;;14.20;99.90;;;;;;4991993;28;20569;-72
2022/07/16 04:51:32;;;;;;;5.50;4.90;;;14.10;99.90;;;;;;4991707;28;20231;-73
2022/07/16 04:53:58;;;;;;;10.80;5.53;;;14.30;99.90;;;;;;5009423;28;20287;-74
2022/07/16 04:56:23;;;;;;;8.00;4.37;;;14.40;99.90;;;;;;4991944;28;20205;-74
2022/07/16 04:58:49;;;;;;;7.93;4.57;;;14.60;99.90;;;;;;5009958;28;20596;-74
2022/07/16 05:01:14;;;;;;;5.07;4.57;;;14.80;99.90;;;;;;5009733;28;20279;-74
2022/07/16 05:03:40;;;;;;;6.70;4.27;;;14.90;99.90;;;;;;4991988;28;20557;-74
2022/07/16 05:06:06;;;;;;;8.63;3.97;;;15.00;99.90;;;;;;5008707;28;20237;-75
2022/07/16 05:08:31;;;;;;;6.33;3.43;;;15.20;99.90;;;;;;5009336;28;20244;-75
2022/07/16 05:10:57;;;;;;;5.67;4.13;;;15.30;99.90;;;;;;5009198;28;20220;-74
2022/07/16 05:13:23;;;;;;;6.00;4.67;;;15.40;99.90;;;;;;5008944;28;20222;-75
2022/07/16 05:15:48;;;;;;;10.97;4.70;;;15.40;99.90;;;;;;4974922;28;20185;-76
2022/07/16 05:18:14;;;;;;;7.97;4.17;;;15.40;99.90;;;;;;5009415;28;20194;-75
2022/07/16 05:20:40;;;;;;;6.97;4.20;;;15.50;99.90;;;;;;4991095;28;20198;-75
2022/07/16 05:23:05;;;;;;;4.50;3.93;;;15.70;99.90;;;;;;4991266;28;20191;-75
2022/07/16 05:25:31;;;;;;;9.57;4.43;;;15.60;99.90;;;;;;4975060;28;20194;-75
2022/07/16 05:27:57;;;;;;;7.33;4.10;;;15.70;99.90;;;;;;4991289;28;20313;-75
2022/07/16 05:30:22;;;;;;;5.07;4.10;;;15.70;99.90;;;;;;4991516;28;20229;-75
2022/07/16 05:32:50;;;;;;;4.93;4.40;;;15.70;99.90;;;;;;4991484;28;20184;-75
2022/07/16 05:35:16;;;;;;;7.77;3.80;;;15.80;99.90;;;;;;5009867;28;20836;-75
2022/07/16 05:37:43;;;;;;;14.60;4.00;;;15.90;99.90;;;;;;4992639;28;20450;-79
2022/07/16 05:40:10;;;;;;;7.77;4.10;;;16.10;99.90;;;;;;5021035;28;20446;-79
2022/07/16 05:42:36;;;;;;;8.33;4.77;;;16.20;99.90;;;;;;5003235;28;20432;-79
2022/07/16 05:45:02;;;;;;;6.27;4.20;;;16.30;99.90;;;;;;5003567;28;20423;-79
2022/07/16 05:47:28;;;;;;;16.40;3.90;;;16.40;99.90;;;;;;5003916;28;20458;-79
2022/07/16 05:49:53;;;;;;;7.60;4.37;;;16.60;99.90;;;;;;5003727;28;20797;-78
2022/07/16 05:52:19;;;;;;;5.80;4.77;;;16.70;99.90;;;;;;5004240;28;20250;-79
2022/07/16 05:54:45;;;;;;;8.80;5.10;;;16.80;99.90;;;;;;4987724;28;20256;-79
2022/07/16 05:57:10;;;;;;;6.53;4.43;;;17.00;99.90;;;;;;4985184;28;20203;-79
2022/07/16 05:59:36;;;;;;;8.60;4.70;;;17.10;99.90;;;;;;4991645;28;20218;-80
2022/07/16 06:02:02;;;;;;;5.20;4.70;;;17.20;99.90;;;;;;4992022;28;20195;-79
2022/07/16 06:04:27;;;;;;;9.40;4.77;;;17.30;99.90;;;;;;4976110;28;20187;-79
2022/07/16 06:06:55;;;;;;;8.07;4.50;;;17.30;99.90;;;;;;4975327;28;20208;-79
2022/07/16 06:09:21;;;;;;;5.23;4.23;;;17.50;99.90;;;;;;4992087;28;20185;-79
2022/07/16 06:11:46;;;;;;;9.37;4.40;;;17.60;99.90;;;;;;4975255;28;20479;-79
2022/07/16 06:14:12;;;;;;;8.97;4.73;;;17.70;99.90;;;;;;4991917;28;20222;-78
2022/07/16 06:16:40;;;;;;;8.20;4.23;;;17.80;99.90;;;;;;4991853;28;20210;-79
2022/07/16 06:19:06;;;;;;;10.60;4.20;;;17.90;99.90;;;;;;4994502;28;20184;-78
2022/07/16 06:21:32;;;;;;;8.17;4.13;;;18.00;99.90;;;;;;4995404;28;20430;-79
2022/07/16 06:23:57;;;;;;;10.23;4.83;;;18.10;99.90;;;;;;4979763;28;20819;-79
2022/07/16 06:26:23;;;;;;;6.40;3.60;;;18.10;99.90;;;;;;4996297;28;20356;-80
2022/07/16 06:28:49;;;;;;;13.43;4.00;;;18.20;99.40;;;;;;4996183;28;20206;-79
2022/07/16 06:31:14;;;;;;;4.70;4.30;;;18.20;99.90;;;;;;4995663;28;20212;-79
2022/07/16 06:33:40;;;;;;;5.20;4.10;;;18.30;99.60;;;;;;5012856;28;20189;-80
2022/07/16 06:36:06;;;;;;;7.73;4.33;;;18.30;98.90;;;;;;4978185;28;20739;-79
2022/07/16 06:38:32;;;;;;;6.20;3.90;;;18.30;99.90;;;;;;4978305;28;20940;-78
2022/07/16 06:40:58;;;;;;;5.20;3.73;;;18.40;99.10;;;;;;4994323;28;20545;-79
2022/07/16 06:43:23;;;;;;;7.33;4.07;;;18.70;99.90;;;;;;5011813;28;20530;-78
2022/07/16 06:45:50;;;;;;;8.50;3.73;;;18.70;98.30;;;;;;5011858;28;20204;-79
2022/07/16 06:48:16;;;;;;;5.20;4.20;;;18.70;99.70;;;;;;4994523;28;20189;-78
2022/07/16 06:50:41;;;;;;;5.60;3.33;;;18.90;99.90;;;;;;4994248;28;20525;-78
2022/07/16 06:53:07;;;;;;;8.30;4.03;;;18.90;99.50;;;;;;4978980;28;20188;-79
2022/07/16 06:55:33;;;;;;;4.23;3.70;;;19.00;99.10;;;;;;4993982;28;20182;-79
2022/07/16 06:57:58;;;;;;;8.63;4.10;;;19.10;99.90;;;;;;4994029;28;20288;-78
2022/07/16 07:00:24;;;;;;;7.07;4.07;;;19.20;98.70;;;;;;4993970;28;20226;-78
2022/07/16 07:02:49;;;;;;;11.27;4.40;;;19.40;99.90;;;;;;4993552;28;20717;-78
2022/07/16 07:05:15;;;;;;;7.43;4.00;;;19.40;99.90;;;;;;4993754;28;20192;-78
2022/07/16 07:07:41;;;;;;;7.20;4.17;;;19.40;99.90;;;;;;4993910;28;20753;-78
2022/07/16 07:10:06;;;;;;;5.03;3.83;;;19.40;99.90;;;;;;4994009;28;20291;-78
2022/07/16 07:12:35;;;;;;;6.43;4.07;;;19.40;99.90;;;;;;5011518;28;20200;-78
2022/07/16 07:15:00;;;;;;;6.47;3.63;;;19.40;99.90;;;;;;4977288;28;20207;-78
2022/07/16 07:17:27;;;;;;;7.57;4.43;;;19.50;99.90;;;;;;5011241;28;20958;-78
2022/07/16 07:19:52;;;;;;;11.13;3.80;;;19.50;99.90;;;;;;4977709;28;20188;-79
2022/07/16 07:22:18;;;;;;;4.70;3.60;;;19.50;99.30;;;;;;4993476;28;20455;-78
2022/07/16 07:24:44;;;;;;;7.70;3.60;;;19.60;98.90;;;;;;4977205;28;20660;-79
2022/07/16 07:27:09;;;;;;;10.50;4.07;;;19.80;99.30;;;;;;5011082;28;20264;-79
2022/07/16 07:29:35;;;;;;;3.87;3.47;;;19.80;99.00;;;;;;5010355;28;20265;-78
2022/07/16 07:32:01;;;;;;;5.20;3.47;;;20.00;98.90;;;;;;5011140;28;20209;-79
2022/07/16 07:34:26;;;;;;;4.20;3.80;;;20.00;97.80;;;;;;4977259;28;20195;-78
2022/07/16 07:36:52;;;;;;;4.60;3.40;;;20.00;98.60;;;;;;4993415;28;20674;-78
2022/07/16 07:39:17;;;;;;;7.00;3.80;;;20.10;97.90;;;;;;4994333;28;20201;-78
2022/07/16 07:41:43;;;;;;;6.60;3.37;;;20.20;97.00;;;;;;4993167;28;20620;-79
2022/07/16 07:44:09;;;;;;;8.27;3.63;;;20.30;98.50;;;;;;5011234;28;20238;-79
2022/07/16 07:46:34;;;;;;;7.63;3.37;;;20.30;97.80;;;;;;4976891;28;20738;-78
2022/07/16 07:49:00;;;;;;;5.80;3.13;;;20.40;97.60;;;;;;4993232;28;20268;-78
2022/07/16 07:51:26;;;;;;;7.77;3.00;;;20.40;94.30;;;;;;4993382;28;20200;-79
2022/07/16 07:53:51;;;;;;;3.87;3.00;;;20.50;96.50;;;;;;4993210;28;20268;-78
2022/07/16 07:56:17;;;;;;;6.00;4.07;;;20.60;95.50;;;;;;4977000;28;20579;-78
2022/07/16 07:58:42;;;;;;;17.40;3.77;;;20.70;94.90;;;;;;4976793;28;20185;-78
2022/07/16 08:01:08;;;;;;;30.23;4.90;;;20.70;96.00;;;;;;4992220;28;20189;-78
2022/07/16 08:03:34;;;;;;;5.80;3.57;;;20.80;97.30;;;;;;4991251;28;20686;-77
2022/07/16 08:05:59;;;;;;;5.93;3.30;;;20.90;94.80;;;;;;4991277;28;20185;-77
2022/07/16 08:08:25;;;;;;;10.67;5.03;;;20.80;95.90;;;;;;4974767;28;20246;-78
2022/07/16 08:10:51;;;;;;;13.20;5.30;;;20.90;92.20;;;;;;5008726;28;20588;-77
2022/07/16 08:13:17;;;;;;;14.27;6.40;;;21.00;91.40;;;;;;4975243;28;20940;-77
2022/07/16 08:15:43;;;;;;;9.60;4.57;;;21.10;91.80;;;;;;4975040;28;20195;-77
2022/07/16 08:18:09;;;;;;;8.20;3.97;;;21.20;92.60;;;;;;4991340;28;20429;-77
2022/07/16 08:20:35;;;;;;;5.00;2.70;;;21.30;91.00;;;;;;5009084;28;20989;-77
2022/07/16 08:23:01;;;;;;;5.33;2.83;;;21.50;91.60;;;;;;5008960;28;20866;-77
2022/07/16 08:25:45;;;;;;;4.10;2.47;;;21.60;90.50;;;;;;4990892;28;20433;-77
2022/07/16 08:28:12;;;;;;;22.33;3.17;;;21.80;90.10;;;;;;5008725;28;20193;-77
2022/07/16 08:30:38;;;;;;;10.00;2.77;;;21.90;87.30;;;;;;5008829;28;20836;-77
2022/07/16 08:33:04;;;;;;;6.23;2.00;;;22.00;86.00;;;;;;5008493;28;20421;-77
2022/07/16 08:35:29;;;;;;;7.93;2.00;;;22.10;81.50;;;;;;5008570;28;20773;-78
2022/07/16 08:37:55;;;;;;;6.70;3.00;;;22.20;82.70;;;;;;4991159;28;20561;-77
2022/07/16 08:40:23;;;;;;;5.53;2.73;;;22.20;79.30;;;;;;5008346;28;20202;-78
2022/07/16 08:42:50;;;;;;;8.87;2.93;;;22.40;82.20;;;;;;5008672;28;20186;-77
2022/07/16 08:45:18;;;;;;;7.53;1.70;;;22.60;79.60;;;;;;4990655;28;20442;-77
2022/07/16 08:47:44;;;;;;;5.67;1.47;;;22.60;74.50;;;;;;5008140;28;20935;-77
2022/07/16 08:50:14;;;;;;;5.90;3.00;;;22.70;75.10;;;;;;5008085;28;20466;-77
2022/07/16 08:52:48;;;;;;;4.97;1.67;;;22.90;74.20;;;;;;4990610;28;20456;-78
2022/07/16 08:55:14;;;;;;;3.13;2.30;;;23.20;71.90;;;;;;4990711;28;20427;-77
2022/07/16 08:57:40;;;;;;;3.70;2.17;;;23.60;70.60;;;;;;5007836;28;20772;-77
2022/07/16 09:00:11;;;;;;;3.87;2.00;;;23.60;69.00;;;;;;5007974;28;20214;-77
2022/07/16 09:02:37;;;;;;;4.47;2.00;;;23.50;68.70;;;;;;5008048;28;20456;-77
2022/07/16 09:05:03;;;;;;;4.40;2.00;;;23.70;69.50;;;;;;4990574;28;20941;-78
2022/07/16 09:07:29;;;;;;;4.00;2.07;;;23.80;65.90;;;;;;5007797;28;20983;-77
2022/07/16 09:09:55;;;;;;;4.30;1.70;;;24.00;67.80;;;;;;4989922;28;20517;-77
2022/07/16 09:12:42;;;;;;;6.07;2.20;;;24.20;67.60;;;;;;4990362;28;20195;-77
2022/07/16 09:15:24;;;;;;;4.57;2.00;;;24.30;66.00;;;;;;4990176;28;20665;-77
2022/07/16 09:18:08;;;;;;;5.50;2.43;;;24.60;67.10;;;;;;5007565;28;20485;-77
2022/07/16 09:20:36;;;;;;;9.30;2.10;;;24.80;65.00;;;;;;4989591;28;20941;-77
2022/07/16 09:23:02;;;;;;;22.30;2.90;;;25.00;65.40;;;;;;5007569;28;20422;-77
2022/07/16 09:25:28;;;;;;;14.90;2.67;;;25.10;61.30;;;;;;5007611;28;20425;-77
2022/07/16 09:27:58;;;;;;;19.27;2.50;;;25.00;61.70;;;;;;4989968;28;21101;-77
2022/07/16 09:30:25;;;;;;;19.23;2.67;;;25.30;62.70;;;;;;5007863;28;20977;-76
2022/07/16 09:32:51;;;;;;;4.77;2.80;;;25.70;61.80;;;;;;4989907;28;20920;-77
2022/07/16 09:35:18;;;;;;;3.37;2.37;;;25.80;61.50;;;;;;5008022;28;20418;-77
2022/07/16 09:37:52;;;;;;;11.33;3.00;;;25.90;62.10;;;;;;4990342;28;20449;-76
2022/07/16 09:40:47;;;;;;;20.00;2.93;;;26.00;63.40;;;;;;5008378;28;20451;-77
2022/07/16 09:43:13;;;;;;;5.03;2.57;;;26.00;61.70;;;;;;5009878;28;20463;-77
2022/07/16 09:45:39;;;;;;;8.23;3.30;;;26.20;62.90;;;;;;4990362;28;21061;-77
2022/07/16 09:48:25;;;;;;;4.93;2.67;;;26.30;60.90;;;;;;5008229;28;20482;-76
2022/07/16 09:50:52;;;;;;;4.67;2.57;;;26.40;61.40;;;;;;5021857;28;20521;-78
2022/07/16 09:53:20;;;;;;;5.93;2.20;;;26.50;61.80;;;;;;5019156;28;20453;-77
2022/07/16 09:56:20;;;;;;;34.80;3.90;;;26.80;59.70;;;;;;5027621;28;20515;-76
2022/07/16 09:58:49;;;;;;;6.20;2.70;;;27.10;58.40;;;;;;4965459;28;20428;-76
2022/07/16 10:01:16;;;;;;;6.80;2.80;;;27.30;58.60;;;;;;4996823;28;20526;-76
2022/07/16 10:03:42;;;;;;;6.97;2.60;;;27.40;57.00;;;;;;4983274;28;20949;-77
2022/07/16 10:06:08;;;;;;;6.40;3.63;;;27.40;57.20;;;;;;5015428;28;20443;-75
2022/07/16 10:08:35;;;;;;;7.40;3.00;;;27.60;56.70;;;;;;5011998;28;20458;-74
2022/07/16 10:11:01;;;;;;;44.30;4.40;;;27.20;57.30;;;;;;5012077;28;20475;-74
2022/07/16 10:13:28;;;;;;;6.70;3.00;;;26.90;57.70;;;;;;5013394;28;20483;-74
2022/07/16 10:15:54;;;;;;;5.70;2.07;;;26.90;58.40;;;;;;4994556;28;20647;-74
2022/07/16 10:18:42;;;;;;;12.50;2.37;;;26.90;58.60;;;;;;5011624;28;20474;-76
2022/07/16 10:21:14;;;;;;;4.67;2.47;;;26.90;57.90;;;;;;4993780;28;20518;-74
2022/07/16 10:24:04;;;;;;;7.93;3.40;;;26.80;57.00;;;;;;5011598;28;20516;-74
2022/07/16 10:26:32;;;;;;;5.10;2.33;;;26.80;57.70;;;;;;4998079;28;20973;-74
2022/07/16 10:28:59;;;;;;;3.80;2.57;;;26.70;56.60;;;;;;5011139;28;20770;-76
2022/07/16 10:32:29;;;;;;;14.03;2.60;;;26.50;56.80;;;;;;4993769;28;20475;-75
2022/07/16 10:34:37;;;;;;;5.03;2.67;;;26.70;59.20;;;;;;4997124;28;20442;-75
2022/07/16 10:37:05;;;;;;;3.80;2.37;;;26.60;57.60;;;;;;4994244;28;20627;-76
2022/07/16 10:39:31;;;;;;;9.27;2.40;;;26.70;57.30;;;;;;4993600;28;20486;-75
2022/07/16 10:42:03;;;;;;;4.43;2.03;;;27.00;57.20;;;;;;5011354;28;21264;-75
2022/07/16 10:44:48;;;;;;;2.53;2.23;;;26.90;56.90;;;;;;4993709;28;20650;-76
2022/07/16 10:47:16;;;;;;;3.63;2.50;;;27.00;56.00;;;;;;4993601;28;20443;-76
2022/07/16 10:49:42;;;;;;;6.80;2.80;;;27.00;55.50;;;;;;4993827;28;21025;-76
2022/07/16 10:52:14;;;;;;;4.23;2.67;;;27.00;55.40;;;;;;5011437;28;20475;-76
2022/07/16 10:54:49;;;;;;;8.80;2.43;;;27.00;55.20;;;;;;5011487;28;20511;-76
2022/07/16 10:57:16;;;;;;;5.63;2.97;;;27.00;56.50;;;;;;5011429;28;20947;-76
2022/07/16 10:59:44;;;;;;;7.90;2.97;;;27.00;56.10;;;;;;4993366;28;20424;-76
2022/07/16 11:02:11;;;;;;;2.90;2.60;;;27.20;56.40;;;;;;5011144;28;20430;-76
2022/07/16 11:04:39;;;;;;;3.93;2.53;;;27.30;55.90;;;;;;4992510;28;20420;-76
2022/07/16 11:07:09;;;;;;;7.40;2.33;;;27.20;55.50;;;;;;4977822;28;21126;-76
2022/07/16 11:09:39;;;;;;;3.57;2.47;;;27.40;54.70;;;;;;5011493;28;20917;-76
2022/07/16 11:12:24;;;;;;;4.93;2.30;;;27.50;54.40;;;;;;4993817;28;20471;-75
2022/07/16 11:14:52;;;;;;;4.67;2.50;;;27.40;54.60;;;;;;4977728;28;21220;-75
2022/07/16 11:17:22;;;;;;;4.73;2.33;;;27.50;54.70;;;;;;4993917;28;20443;-76
2022/07/16 11:19:50;;;;;;;3.87;2.17;;;27.50;55.00;;;;;;4993567;28;20463;-75
2022/07/16 11:22:22;;;;;;;6.57;2.53;;;27.50;54.40;;;;;;4993771;28;20448;-75
2022/07/16 11:24:51;;;;;;;5.80;2.60;;;27.50;54.70;;;;;;4994070;28;20433;-75
2022/07/16 11:27:18;;;;;;;4.13;2.40;;;27.50;53.40;;;;;;5011122;28;20825;-75
2022/07/16 11:29:44;;;;;;;3.00;2.40;;;27.60;53.00;;;;;;5011343;28;20420;-75
2022/07/16 11:32:14;;;;;;;4.27;2.10;;;27.60;52.80;;;;;;4993579;28;20981;-75
2022/07/16 11:34:43;;;;;;;3.07;1.97;;;27.60;52.40;;;;;;4977672;28;20439;-76
2022/07/16 11:37:08;;;;;;;4.50;1.93;;;27.20;51.60;;;;;;4978010;28;20448;-75
2022/07/16 11:39:35;;;;;;;9.50;2.60;;;27.40;52.10;;;;;;4993915;28;20452;-75
2022/07/16 11:42:01;;;;;;;3.57;2.13;;;27.20;51.40;;;;;;4994577;28;20273;-75
2022/07/16 11:44:30;;;;;;;3.90;1.73;;;27.40;52.60;;;;;;5012724;28;20503;-76
2022/07/16 11:47:04;;;;;;;4.27;2.20;;;27.30;51.90;;;;;;4978155;28;20220;-75
2022/07/16 11:49:32;;;;;;;3.00;1.70;;;27.60;53.30;;;;;;4993604;28;20424;-76
2022/07/16 11:52:00;;;;;;;3.23;2.00;;;27.70;52.60;;;;;;4993236;28;20840;-76
2022/07/16 11:54:27;;;;;;;2.70;1.57;;;27.80;52.40;;;;;;4993360;28;20523;-76
2022/07/16 11:56:54;;;;;;;6.40;2.20;;;27.80;52.00;;;;;;5009445;28;20436;-76
2022/07/16 11:59:29;;;;;;;4.50;1.80;;;27.80;52.90;;;;;;5010623;28;20857;-76
2022/07/16 12:02:05;;;;;;;2.37;1.60;;;27.90;51.60;;;;;;5011055;28;20905;-76
2022/07/16 12:04:58;;;;;;;2.27;1.23;;;27.70;51.10;;;;;;5011152;28;20761;-76
2022/07/16 12:07:24;;;;;;;5.03;1.70;;;27.80;51.20;;;;;;5010218;28;20447;-76
2022/07/16 12:09:51;;;;;;;1.80;1.50;;;27.90;50.40;;;;;;5010265;28;20427;-76
2022/07/16 12:12:20;;;;;;;2.27;1.37;;;27.70;50.80;;;;;;4992634;28;20216;-76
2022/07/16 12:14:51;;;;;;;2.60;2.00;;;27.60;50.00;;;;;;5010514;28;20806;-75
2022/07/16 12:17:38;;;;;;;4.63;1.70;;;27.60;49.50;;;;;;5009578;28;20470;-75
2022/07/16 12:20:21;;;;;;;3.30;1.43;;;27.50;50.30;;;;;;5010024;28;20421;-76
2022/07/16 12:22:50;;;;;;;5.17;1.57;;;27.60;50.20;;;;;;4992402;28;20514;-76
2022/07/16 12:25:26;;;;;;;5.00;1.57;;;27.70;50.60;;;;;;4992137;28;20428;-76
2022/07/16 12:27:57;;;;;;;6.90;1.90;;;27.80;50.30;;;;;;5009797;28;20431;-75
2022/07/16 12:30:45;;;;;;;6.57;1.67;;;27.90;51.30;;;;;;4991609;28;21038;-76
2022/07/16 12:33:22;;;;;;;5.03;2.07;;;27.70;48.60;;;;;;4992230;28;20531;-76
2022/07/16 12:36:04;;;;;;;3.77;1.47;;;27.50;49.70;;;;;;5009440;28;20470;-76
2022/07/16 12:38:58;;;;;;;6.73;2.00;;;27.70;50.90;;;;;;5008992;28;20489;-76
2022/07/16 12:41:42;;;;;;;11.80;2.17;;;27.90;50.30;;;;;;4991815;28;20794;-76
2022/07/16 12:44:19;;;;;;;1.93;1.53;;;27.90;49.20;;;;;;4990509;28;20431;-76
2022/07/16 12:46:47;;;;;;;6.07;1.47;;;27.70;48.90;;;;;;5008467;28;20439;-75
2022/07/16 12:49:26;;;;;;;3.00;1.50;;;27.50;49.60;;;;;;4991032;28;20427;-76
2022/07/16 12:52:01;;;;;;;2.43;1.57;;;27.60;49.90;;;;;;5009397;28;20824;-76
2022/07/16 12:58:47;;;;;;;6.33;1.50;;;27.60;49.70;;;;;;5011791;28;20419;-77
2022/07/16 12:59:58;;;;;;;4.57;1.60;;;27.50;49.80;;;;;;4997443;28;20578;-76
2022/07/16 13:02:23;;;;;;;3.00;1.70;;;27.40;50.70;;;;;;4979563;28;20440;-76